createdAt,value
2022-09-21T00:04:31.659Z,27.50
2022-09-21T00:09:37.617Z,27.60
2022-09-21T00:14:43.407Z,27.60
2022-09-21T00:19:49.170Z,28.00
2022-09-21T00:24:54.711Z,28.20
2022-09-21T00:30:02.492Z,28.20
2022-09-21T00:35:11.848Z,28.30
2022-09-21T00:40:17.813Z,28.50
2022-09-21T00:45:23.851Z,28.70
2022-09-21T00:50:30.393Z,28.90
2022-09-21T00:55:40.206Z,29.00
2022-09-21T01:00:45.728Z,29.10
2022-09-21T01:05:51.860Z,29.30
2022-09-21T01:11:19.855Z,29.50
2022-09-21T01:16:52.000Z,29.70
2022-09-21T01:22:36.532Z,30.00
2022-09-21T01:28:15.661Z,30.00
2022-09-21T01:33:31.933Z,30.00
2022-09-21T01:38:51.646Z,30.10
2022-09-21T01:44:03.207Z,29.90
2022-09-21T01:49:15.899Z,30.10
2022-09-21T01:54:26.890Z,30.20
2022-09-21T01:59:51.197Z,30.40
2022-09-21T02:04:57.208Z,30.40
2022-09-21T02:10:04.724Z,30.30
2022-09-21T02:15:10.891Z,30.10
2022-09-21T02:20:31.184Z,30.40
2022-09-21T02:25:40.455Z,30.20
2022-09-21T02:30:55.618Z,29.90
2022-09-21T02:36:07.434Z,29.70
2022-09-21T02:41:33.075Z,29.50
2022-09-21T02:46:58.866Z,29.50
2022-09-21T02:52:10.596Z,29.90
2022-09-21T02:57:19.075Z,30.20
2022-09-21T03:02:24.896Z,30.10
2022-09-21T03:07:30.383Z,29.80
2022-09-21T03:12:35.694Z,30.00
2022-09-21T03:17:41.874Z,31.10
2022-09-21T03:22:47.667Z,31.40
2022-09-21T03:27:55.420Z,31.00
2022-09-21T03:33:01.632Z,30.50
2022-09-21T03:38:07.390Z,30.20
2022-09-21T03:43:13.412Z,29.80
2022-09-21T03:48:19.240Z,29.80
2022-09-21T03:53:25.112Z,30.00
2022-09-21T03:58:30.363Z,30.30
2022-09-21T04:03:35.838Z,30.50
2022-09-21T04:08:43.739Z,31.00
2022-09-21T04:13:58.954Z,31.70
2022-09-21T04:19:05.123Z,32.20
2022-09-21T04:24:10.663Z,32.20
2022-09-21T04:29:17.474Z,32.00
2022-09-21T04:34:23.244Z,31.80
2022-09-21T04:39:29.454Z,31.50
2022-09-21T04:44:35.632Z,30.90
2022-09-21T04:49:41.475Z,30.70
2022-09-21T04:54:47.044Z,30.50
2022-09-21T04:59:53.968Z,30.10
2022-09-21T05:04:59.286Z,28.10
2022-09-21T05:10:04.759Z,27.00
2022-09-21T05:15:12.156Z,26.40
2022-09-21T05:20:18.364Z,26.20
2022-09-21T05:25:24.064Z,26.20
2022-09-21T05:30:30.681Z,26.10
2022-09-21T05:35:59.349Z,25.80
2022-09-21T05:41:05.731Z,25.80
2022-09-21T05:46:39.890Z,25.80
2022-09-21T05:52:18.530Z,25.70
2022-09-21T05:57:45.612Z,25.70
2022-09-21T06:03:44.984Z,25.50
2022-09-21T06:08:51.220Z,25.50
2022-09-21T06:14:02.428Z,25.70
2022-09-21T06:19:08.283Z,25.50
2022-09-21T06:24:14.409Z,25.80
2022-09-21T06:29:25.105Z,25.90
2022-09-21T06:34:30.986Z,26.40
2022-09-21T06:39:36.919Z,27.10
2022-09-21T06:44:42.486Z,27.70
2022-09-21T06:49:48.270Z,28.10
2022-09-21T06:54:53.915Z,27.90
2022-09-21T06:59:59.754Z,27.90
2022-09-21T07:05:06.303Z,27.70
2022-09-21T07:10:17.111Z,27.50
2022-09-21T07:15:28.671Z,27.20
2022-09-21T07:20:34.692Z,26.80
2022-09-21T07:25:41.161Z,26.60
2022-09-21T07:30:47.034Z,26.40
2022-09-21T07:35:58.504Z,26.40
2022-09-21T07:41:04.987Z,26.40
2022-09-21T07:46:16.187Z,26.50
2022-09-21T07:51:22.015Z,26.90
2022-09-21T07:56:28.547Z,27.50
2022-09-21T08:01:39.859Z,28.00
2022-09-21T08:06:45.668Z,28.40
2022-09-21T08:11:53.532Z,28.60
2022-09-21T08:16:59.262Z,28.90
2022-09-21T08:22:05.643Z,29.10
2022-09-21T08:27:11.618Z,29.30
2022-09-21T08:32:33.301Z,29.50
2022-09-21T08:37:42.698Z,29.60
2022-09-21T08:42:56.070Z,29.60
2022-09-21T08:48:05.128Z,29.60
2022-09-21T08:53:22.124Z,29.70
2022-09-21T08:58:29.245Z,29.70
2022-09-21T09:03:56.487Z,29.80
2022-09-21T09:09:14.183Z,29.70
2022-09-21T09:14:40.697Z,29.70
2022-09-21T09:20:16.937Z,29.70
2022-09-21T09:25:24.093Z,29.70
2022-09-21T09:30:34.127Z,29.70
2022-09-21T09:35:56.386Z,29.80
2022-09-21T09:41:10.904Z,29.80
2022-09-21T09:46:31.317Z,29.90
2022-09-21T09:51:39.416Z,29.90
2022-09-21T09:56:47.678Z,29.90
2022-09-21T10:02:08.927Z,29.80
2022-09-21T10:07:21.848Z,29.70
2022-09-21T10:12:29.399Z,29.60
2022-09-21T10:17:35.100Z,29.40
2022-09-21T10:22:46.138Z,29.20
2022-09-21T10:27:53.957Z,29.00
2022-09-21T10:33:01.453Z,28.90
2022-09-21T10:38:29.294Z,28.70
2022-09-21T10:43:49.592Z,28.60
2022-09-21T10:48:55.604Z,28.50
2022-09-21T10:54:01.594Z,28.40
2022-09-21T10:59:26.686Z,28.30
2022-09-21T11:04:35.682Z,28.30
2022-09-21T11:09:49.873Z,28.20
2022-09-21T11:15:18.040Z,28.20
2022-09-21T11:20:43.045Z,28.00
2022-09-21T11:26:31.768Z,28.00
2022-09-21T11:31:50.845Z,27.90
2022-09-21T11:37:14.701Z,27.80
2022-09-21T11:42:56.566Z,27.70
2022-09-21T11:48:31.590Z,27.60
2022-09-21T11:53:44.094Z,27.50
2022-09-21T11:58:59.469Z,27.40
2022-09-21T12:04:12.708Z,27.30
2022-09-21T12:10:00.169Z,27.30
2022-09-21T12:15:33.943Z,27.30
2022-09-21T12:20:58.060Z,27.20
2022-09-21T12:26:11.328Z,27.20
2022-09-21T12:31:56.983Z,27.20
2022-09-21T12:37:20.285Z,27.10
2022-09-21T12:42:48.512Z,27.10
2022-09-21T12:48:31.137Z,27.10
2022-09-21T12:53:41.503Z,27.10
2022-09-21T12:59:12.406Z,27.20
2022-09-21T13:04:49.565Z,27.20
2022-09-21T13:09:55.968Z,27.20
2022-09-21T13:15:14.910Z,27.10
2022-09-21T13:20:24.551Z,27.00
2022-09-21T13:25:32.959Z,27.00
2022-09-21T13:30:47.487Z,27.00
2022-09-21T13:36:04.008Z,27.00
2022-09-21T13:41:22.416Z,27.10
2022-09-21T13:46:40.447Z,27.20
2022-09-21T13:52:13.454Z,27.20
2022-09-21T13:57:38.621Z,27.30
2022-09-21T14:02:56.700Z,27.30
2022-09-21T14:08:07.150Z,27.20
2022-09-21T14:13:34.604Z,27.20
2022-09-21T14:18:40.999Z,27.20
2022-09-21T14:24:11.003Z,27.20
2022-09-21T14:29:17.181Z,27.20
2022-09-21T14:34:28.565Z,27.20
2022-09-21T14:39:40.628Z,27.20
2022-09-21T14:44:46.526Z,27.30
2022-09-21T14:50:16.509Z,27.30
2022-09-21T14:55:43.493Z,27.30
2022-09-21T15:00:55.034Z,27.20
2022-09-21T15:06:41.602Z,27.20
2022-09-21T15:11:57.408Z,27.20
2022-09-21T15:17:06.231Z,27.10
2022-09-21T15:22:26.524Z,27.20
2022-09-21T15:27:34.788Z,27.20
2022-09-21T15:32:45.785Z,27.20
2022-09-21T15:37:55.448Z,27.20
2022-09-21T15:43:06.235Z,27.20
2022-09-21T15:48:14.520Z,27.20
2022-09-21T15:53:32.653Z,27.20
2022-09-21T15:58:42.155Z,27.20
2022-09-21T16:03:48.271Z,27.20
2022-09-21T16:08:54.149Z,27.10
2022-09-21T16:14:32.095Z,27.00
2022-09-21T16:20:05.932Z,27.00
2022-09-21T16:25:26.394Z,27.00
2022-09-21T16:30:56.791Z,26.90
2022-09-21T16:36:05.969Z,26.80
2022-09-21T16:41:12.787Z,26.80
2022-09-21T16:46:18.887Z,26.80
2022-09-21T16:51:26.837Z,26.80
2022-09-21T16:56:32.933Z,26.80
2022-09-21T17:01:38.582Z,26.80
2022-09-21T17:06:43.542Z,26.70
2022-09-21T17:11:49.848Z,26.70
2022-09-21T17:16:59.863Z,26.60
2022-09-21T17:22:06.965Z,26.60
2022-09-21T17:27:14.021Z,26.60
2022-09-21T17:32:22.356Z,26.50
2022-09-21T17:37:28.462Z,26.50
2022-09-21T17:42:40.719Z,26.50
2022-09-21T17:47:46.648Z,26.40
2022-09-21T17:53:11.106Z,26.40
2022-09-21T17:58:37.938Z,26.40
2022-09-21T18:03:45.255Z,26.40
2022-09-21T18:08:52.173Z,26.40
2022-09-21T18:14:01.187Z,26.50
2022-09-21T18:19:25.025Z,26.40
2022-09-21T18:24:36.193Z,26.40
2022-09-21T18:29:42.457Z,26.40
2022-09-21T18:34:59.099Z,26.30
2022-09-21T18:40:23.516Z,26.40
2022-09-21T18:45:40.326Z,26.40
2022-09-21T18:50:53.338Z,26.40
2022-09-21T18:55:59.196Z,26.40
2022-09-21T19:01:05.865Z,26.40
2022-09-21T19:06:14.399Z,26.40
2022-09-21T19:11:53.132Z,26.30
2022-09-21T19:17:21.823Z,26.30
2022-09-21T19:22:38.992Z,26.40
2022-09-21T19:28:02.521Z,26.30
2022-09-21T19:33:50.385Z,26.30
2022-09-21T19:38:56.841Z,26.30
2022-09-21T19:44:02.531Z,26.20
2022-09-21T19:49:21.866Z,26.20
2022-09-21T19:54:46.868Z,26.30
2022-09-21T19:59:53.080Z,26.30
2022-09-21T20:05:06.743Z,26.30
2022-09-21T20:10:31.540Z,26.20
2022-09-21T20:15:45.542Z,26.10
2022-09-21T20:20:51.496Z,26.10
2022-09-21T20:26:08.042Z,26.00
2022-09-21T20:31:14.130Z,26.00
2022-09-21T20:36:20.000Z,26.00
2022-09-21T20:41:26.732Z,26.00
2022-09-21T20:46:33.536Z,26.10
2022-09-21T20:51:40.973Z,26.00
2022-09-21T20:56:47.576Z,26.00
2022-09-21T21:01:54.999Z,25.90
2022-09-21T21:07:00.761Z,25.70
2022-09-21T21:12:06.141Z,25.60
2022-09-21T21:17:13.114Z,25.50
2022-09-21T21:22:18.617Z,25.50
2022-09-21T21:27:26.282Z,25.40
2022-09-21T21:32:34.240Z,25.20
2022-09-21T21:37:41.514Z,25.10
2022-09-21T21:42:47.001Z,25.10
2022-09-21T21:47:52.589Z,25.10
2022-09-21T21:53:00.565Z,25.10
2022-09-21T21:58:06.498Z,25.20
2022-09-21T22:03:11.984Z,25.20
2022-09-21T22:08:17.842Z,25.20
2022-09-21T22:13:24.696Z,25.20
2022-09-21T22:18:30.352Z,25.20
2022-09-21T22:23:36.300Z,25.20
2022-09-21T22:28:43.472Z,25.10
2022-09-21T22:33:49.748Z,25.10
2022-09-21T22:38:56.544Z,25.10
2022-09-21T22:44:02.461Z,25.10
2022-09-21T22:49:08.060Z,25.20
2022-09-21T22:54:13.844Z,25.20
2022-09-21T22:59:19.383Z,25.20
2022-09-21T23:04:24.585Z,25.20
2022-09-21T23:09:30.155Z,25.20
2022-09-21T23:14:35.411Z,25.30
2022-09-21T23:19:41.077Z,25.40
2022-09-21T23:24:46.635Z,25.50
2022-09-21T23:29:52.410Z,25.60
2022-09-21T23:34:57.715Z,25.70
2022-09-21T23:40:02.967Z,25.70
2022-09-21T23:45:08.783Z,25.80
2022-09-21T23:50:14.243Z,25.80
2022-09-21T23:55:19.587Z,25.90
